Time,TemperatureF,DewpointF,PressureIn,WindDirection,WindDirectionDegrees,WindSpeedMPH,WindSpeedGustMPH,Humidity,HourlyPrecipIn,Conditions,Clouds,dailyrainin,SoftwareType,DateUTC
2013-04-05 00:00:00,37.7,22.1,29.97,WSW,248,2.0,4.0,53,0.00,,SKC,0.00,VWS V14.01,2013-04-05 04:00:00,
2013-04-05 00:03:00,37.8,22.0,29.97,WSW,248,0.0,3.0,53,0.00,,,0.00,weatherlink.com 1.10,2013-04-05 04:03:00,
2013-04-05 00:18:00,37.9,22.0,29.96,WSW,248,0.0,4.0,52,0.00,,,0.00,weatherlink.com 1.10,2013-04-05 04:18:00,
2013-04-05 00:30:00,37.4,21.9,29.96,WSW,248,1.0,5.0,53,0.00,,SKC,0.00,VWS V14.01,2013-04-05 04:30:00,
2013-04-05 00:33:00,37.3,21.0,29.96,WSW,249,5.0,5.0,53,0.00,,,0.00,weatherlink.com 1.10,2013-04-05 04:33:00,
2013-04-05 00:48:00,36.6,21.0,29.96,WSW,250,2.0,5.0,54,0.00,,,0.00,weatherlink.com 1.10,2013-04-05 04:48:00,
2013-04-05 01:00:00,37.3,22.2,29.96,WSW,248,2.0,6.0,54,0.00,,SKC,0.00,VWS V14.01,2013-04-05 05:00:00,
2013-04-05 01:03:00,37.3,22.0,29.96,WSW,250,1.0,2.0,54,0.00,,,0.00,weatherlink.com 1.10,2013-04-05 05:03:00,
2013-04-05 01:20:00,36.7,22.0,29.96,WSW,250,0.0,2.0,55,0.00,,,0.00,weatherlink.com 1.10,2013-04-05 05:20:00,
2013-04-05 01:30:00,35.8,21.6,29.96,WSW,248,0.0,3.0,56,0.00,,SKC,0.00,VWS V14.01,2013-04-05 05:30:00,
2013-04-05 01:33:00,35.8,21.0,29.96,WSW,248,3.0,3.0,56,0.00,,,0.00,weatherlink.com 1.10,2013-04-05 05:33:00,
2013-04-05 02:00:00,35.3,21.2,29.95,WSW,248,0.0,3.0,56,0.00,,SKC,0.00,VWS V14.01,2013-04-05 06:00:00,
2013-04-05 02:03:00,35.2,21.0,29.95,WSW,240,0.0,2.0,56,0.00,,,0.00,weatherlink.com 1.10,2013-04-05 06:03:00,
2013-04-05 02:18:00,35.0,21.0,29.95,WSW,240,2.0,3.0,56,0.00,,,0.00,weatherlink.com 1.10,2013-04-05 06:18:00,
2013-04-05 02:30:00,34.3,22.3,29.95,WSW,248,0.0,3.0,61,0.00,,SKC,0.00,VWS V14.01,2013-04-05 06:30:00,
2013-04-05 02:33:00,34.0,22.0,29.95,SW,228,0.0,3.0,61,0.00,,,0.00,weatherlink.com 1.10,2013-04-05 06:33:00,
2013-04-05 02:48:00,33.3,21.0,29.95,SW,228,0.0,0.0,61,0.00,,,0.00,weatherlink.com 1.10,2013-04-05 06:48:00,
2013-04-05 03:00:00,33.0,22.2,29.95,SW,225,0.0,2.0,64,0.00,,SKC,0.00,VWS V14.01,2013-04-05 07:00:00,
2013-04-05 03:30:00,32.1,22.8,29.95,SW,225,0.0,3.0,68,0.00,,SKC,0.00,VWS V14.01,2013-04-05 07:30:00,
2013-04-05 04:00:00,32.8,22.3,29.94,SW,225,0.0,3.0,65,0.00,,SKC,0.00,VWS V14.01,2013-04-05 08:00:00,
2013-04-05 04:04:00,32.8,22.0,29.94,SW,217,0.0,3.0,64,0.00,,,0.00,weatherlink.com 1.10,2013-04-05 08:04:00,
2013-04-05 04:19:00,33.7,22.0,29.95,SW,221,2.0,4.0,63,0.00,,,0.00,weatherlink.com 1.10,2013-04-05 08:19:00,
2013-04-05 04:30:00,33.9,22.6,29.95,SW,225,1.0,5.0,63,0.00,,SKC,0.00,VWS V14.01,2013-04-05 08:30:00,
2013-04-05 04:34:00,33.9,23.0,29.95,WSW,242,2.0,4.0,64,0.00,,,0.00,weatherlink.com 1.10,2013-04-05 08:34:00,
2013-04-05 04:49:00,33.5,23.0,29.96,WSW,245,4.0,4.0,66,0.00,,,0.00,weatherlink.com 1.10,2013-04-05 08:49:00,
2013-04-05 05:00:00,33.7,23.6,29.96,WSW,248,1.0,5.0,66,0.00,,SKC,0.00,VWS V14.01,2013-04-05 09:00:00,
2013-04-05 05:04:00,33.7,23.0,29.96,WSW,251,0.0,4.0,66,0.00,,,0.00,weatherlink.com 1.10,2013-04-05 09:04:00,
2013-04-05 05:19:00,33.4,23.0,29.96,WSW,252,0.0,3.0,66,0.00,,,0.00,weatherlink.com 1.10,2013-04-05 09:19:00,
2013-04-05 05:30:00,32.9,22.8,29.96,WSW,248,1.0,3.0,66,0.00,,SKC,0.00,VWS V14.01,2013-04-05 09:30:00,
2013-04-05 05:34:00,32.9,23.0,29.96,WSW,253,1.0,3.0,67,0.00,,,0.00,weatherlink.com 1.10,2013-04-05 09:34:00,
2013-04-05 05:49:00,32.1,23.0,29.97,West,263,2.0,4.0,68,0.00,,,0.00,weatherlink.com 1.10,2013-04-05 09:49:00,
2013-04-05 06:00:00,31.9,22.5,29.97,West,270,1.0,4.0,68,0.00,,SKC,0.00,VWS V14.01,2013-04-05 10:00:00,
2013-04-05 06:04:00,31.8,22.0,29.97,West,274,1.0,4.0,68,0.00,,,0.00,weatherlink.com 1.10,2013-04-05 10:04:00,
2013-04-05 06:19:00,31.5,22.0,29.98,WNW,283,3.0,3.0,68,0.00,,,0.00,weatherlink.com 1.10,2013-04-05 10:19:00,
2013-04-05 06:30:00,31.4,22.4,29.99,WNW,292,1.0,4.0,69,0.00,,SKC,0.00,VWS V14.01,2013-04-05 10:30:00,
2013-04-05 06:34:00,31.4,22.0,29.99,WNW,292,2.0,4.0,69,0.00,,,0.00,weatherlink.com 1.10,2013-04-05 10:34:00,
2013-04-05 06:50:00,31.1,22.0,30.00,NW,307,3.0,5.0,70,0.00,,,0.00,weatherlink.com 1.10,2013-04-05 10:50:00,
2013-04-05 07:00:00,31.9,23.2,30.00,NW,315,2.0,7.0,70,0.00,,SKC,0.00,VWS V14.01,2013-04-05 11:00:00,
2013-04-05 07:04:00,32.3,23.0,30.00,NW,324,3.0,7.0,69,0.00,,,0.00,weatherlink.com 1.10,2013-04-05 11:04:00,
2013-04-05 07:20:00,34.8,24.0,30.01,NNW,333,4.0,9.0,64,0.00,,,0.00,weatherlink.com 1.10,2013-04-05 11:20:00,
2013-04-05 07:30:00,34.7,23.4,30.02,NNW,338,5.0,9.0,63,0.00,,SKC,0.00,VWS V14.01,2013-04-05 11:30:00,
2013-04-05 07:34:00,34.8,23.0,30.02,North,355,7.0,9.0,63,0.00,,,0.00,weatherlink.com 1.10,2013-04-05 11:34:00,
2013-04-05 07:49:00,35.7,24.0,30.03,NNW,344,6.0,10.0,63,0.00,,,0.00,weatherlink.com 1.10,2013-04-05 11:49:00,
2013-04-05 08:00:00,36.9,25.1,30.04,NNW,338,6.0,10.0,62,0.00,,SKC,0.00,VWS V14.01,2013-04-05 12:00:00,
2013-04-05 08:04:00,37.2,25.0,30.04,NNE,13,4.0,10.0,62,0.00,,,0.00,weatherlink.com 1.10,2013-04-05 12:04:00,
2013-04-05 08:19:00,38.6,26.0,30.05,North,360,5.0,10.0,62,0.00,,,0.00,weatherlink.com 1.10,2013-04-05 12:19:00,
2013-04-05 08:30:00,39.6,27.3,30.06,North,0,6.0,14.0,61,0.00,,SKC,0.00,VWS V14.01,2013-04-05 12:30:00,
2013-04-05 08:34:00,39.8,28.0,30.06,NNW,331,11.0,12.0,62,0.00,,,0.00,weatherlink.com 1.10,2013-04-05 12:34:00,
2013-04-05 08:49:00,40.8,29.0,30.07,NNE,32,9.0,17.0,63,0.00,,,0.00,weatherlink.com 1.10,2013-04-05 12:49:00,
2013-04-05 09:00:00,41.3,30.4,30.07,NE,45,8.0,17.0,65,0.00,,SKC,0.00,VWS V14.01,2013-04-05 13:00:00,
2013-04-05 09:04:00,41.5,30.0,30.07,NE,56,16.0,16.0,65,0.00,,,0.00,weatherlink.com 1.10,2013-04-05 13:04:00,
2013-04-05 09:19:00,42.2,31.0,30.07,NNE,26,7.0,18.0,65,0.00,,,0.00,weatherlink.com 1.10,2013-04-05 13:19:00,
2013-04-05 09:30:00,42.7,32.2,30.08,NE,45,9.0,18.0,66,0.00,,SKC,0.00,VWS V14.01,2013-04-05 13:30:00,
2013-04-05 09:34:00,42.7,32.0,30.08,NE,53,10.0,18.0,65,0.00,,,0.00,weatherlink.com 1.10,2013-04-05 13:34:00,
2013-04-05 09:49:00,42.8,32.0,30.08,NE,37,12.0,20.0,66,0.00,,,0.00,weatherlink.com 1.10,2013-04-05 13:49:00,
2013-04-05 10:00:00,43.8,32.8,30.08,NE,45,10.0,21.0,65,0.00,,SKC,0.00,VWS V14.01,2013-04-05 14:00:00,
2013-04-05 10:04:00,43.9,32.0,30.08,North,5,12.0,14.0,64,0.00,,,0.00,weatherlink.com 1.10,2013-04-05 14:04:00,
2013-04-05 10:21:00,44.2,32.0,30.09,NE,55,6.0,13.0,63,0.00,,,0.00,weatherlink.com 1.10,2013-04-05 14:21:00,
2013-04-05 10:30:00,44.6,33.6,30.09,NNE,22,8.0,16.0,65,0.00,,SKC,0.00,VWS V14.01,2013-04-05 14:30:00,
2013-04-05 10:35:00,44.7,33.0,30.09,NNE,19,7.0,12.0,63,0.00,,,0.00,weatherlink.com 1.10,2013-04-05 14:35:00,
2013-04-05 10:50:00,44.8,33.0,30.10,NE,46,7.0,13.0,64,0.00,,,0.00,weatherlink.com 1.10,2013-04-05 14:50:00,
2013-04-05 11:00:00,45.7,33.4,30.10,NE,45,8.0,14.0,62,0.00,,SKC,0.00,VWS V14.01,2013-04-05 15:00:00,
2013-04-05 11:05:00,45.6,33.0,30.10,North,10,9.0,17.0,62,0.00,,,0.00,weatherlink.com 1.10,2013-04-05 15:05:00,
2013-04-05 11:20:00,45.2,33.0,30.11,NE,46,7.0,15.0,63,0.00,,,0.00,weatherlink.com 1.10,2013-04-05 15:20:00,
2013-04-05 11:30:00,46.1,33.8,30.11,NNE,22,8.0,17.0,62,0.00,,SKC,0.00,VWS V14.01,2013-04-05 15:30:00,
2013-04-05 11:35:00,46.1,34.0,30.11,NE,45,5.0,15.0,62,0.00,,,0.00,weatherlink.com 1.10,2013-04-05 15:35:00,
2013-04-05 12:00:00,47.2,33.2,30.11,North,0,7.0,15.0,58,0.00,,SKC,0.00,VWS V14.01,2013-04-05 16:00:00,
2013-04-05 12:05:00,47.3,34.0,30.11,North,10,8.0,11.0,60,0.00,,,0.00,weatherlink.com 1.10,2013-04-05 16:05:00,
2013-04-05 12:20:00,47.8,34.0,30.11,North,5,7.0,11.0,59,0.00,,,0.00,weatherlink.com 1.10,2013-04-05 16:20:00,
2013-04-05 12:30:00,48.7,33.3,30.11,NNE,22,6.0,12.0,55,0.00,,SKC,0.00,VWS V14.01,2013-04-05 16:30:00,
2013-04-05 12:35:00,49.0,34.0,30.11,NNW,331,8.0,13.0,56,0.00,,,0.00,weatherlink.com 1.10,2013-04-05 16:35:00,
2013-04-05 12:50:00,49.1,32.0,30.11,NNW,331,6.0,9.0,53,0.00,,,0.00,weatherlink.com 1.10,2013-04-05 16:50:00,
2013-04-05 13:00:00,49.9,32.5,30.11,North,0,6.0,14.0,51,0.00,,SKC,0.00,VWS V14.01,2013-04-05 17:00:00,
2013-04-05 13:05:00,50.2,32.0,30.11,NNW,330,15.0,15.0,50,0.00,,,0.00,weatherlink.com 1.10,2013-04-05 17:05:00,
2013-04-05 13:20:00,49.8,31.0,30.11,NNW,332,6.0,11.0,49,0.00,,,0.00,weatherlink.com 1.10,2013-04-05 17:20:00,
2013-04-05 13:30:00,50.8,30.8,30.11,NNW,338,7.0,16.0,46,0.00,,SKC,0.00,VWS V14.01,2013-04-05 17:30:00,
2013-04-05 13:35:00,51.0,31.0,30.11,NW,321,6.0,14.0,47,0.00,,,0.00,weatherlink.com 1.10,2013-04-05 17:35:00,
2013-04-05 13:50:00,50.8,29.0,30.10,West,276,5.0,15.0,43,0.00,,,0.00,weatherlink.com 1.10,2013-04-05 17:50:00,
2013-04-05 14:00:00,50.9,31.4,30.10,NNW,338,7.0,17.0,47,0.00,,SKC,0.00,VWS V14.01,2013-04-05 18:00:00,
2013-04-05 14:05:00,50.7,29.0,30.10,North,355,8.0,13.0,44,0.00,,,0.00,weatherlink.com 1.10,2013-04-05 18:05:00,
2013-04-05 14:20:00,50.7,30.0,30.10,NNE,24,12.0,15.0,46,0.00,,,0.00,weatherlink.com 1.10,2013-04-05 18:20:00,
2013-04-05 14:30:00,52.0,29.6,30.10,NNW,338,7.0,16.0,42,0.00,,SKC,0.00,VWS V14.01,2013-04-05 18:30:00,
2013-04-05 14:35:00,51.9,29.0,30.10,NNW,344,7.0,13.0,41,0.00,,,0.00,weatherlink.com 1.10,2013-04-05 18:35:00,
2013-04-05 14:50:00,51.5,29.0,30.09,NW,313,6.0,14.0,42,0.00,,,0.00,weatherlink.com 1.10,2013-04-05 18:50:00,
2013-04-05 15:00:00,52.1,27.3,30.09,NW,315,8.0,16.0,38,0.00,,SKC,0.00,VWS V14.01,2013-04-05 19:00:00,
2013-04-05 15:05:00,52.1,27.0,30.09,West,263,2.0,15.0,38,0.00,,,0.00,weatherlink.com 1.10,2013-04-05 19:05:00,
2013-04-05 15:20:00,52.3,27.0,30.09,NNW,331,6.0,18.0,37,0.00,,,0.00,weatherlink.com 1.10,2013-04-05 19:20:00,
2013-04-05 15:30:00,52.4,25.6,30.08,NW,315,6.0,18.0,35,0.00,,SKC,0.00,VWS V14.01,2013-04-05 19:30:00,
2013-04-05 15:35:00,52.5,26.0,30.08,NNW,340,12.0,16.0,36,0.00,,,0.00,weatherlink.com 1.10,2013-04-05 19:35:00,
2013-04-05 15:50:00,52.3,25.0,30.08,NW,321,13.0,15.0,34,0.00,,,0.00,weatherlink.com 1.10,2013-04-05 19:50:00,
2013-04-05 16:00:00,52.4,23.4,30.07,NNW,338,7.0,16.0,32,0.00,,SKC,0.00,VWS V14.01,2013-04-05 20:00:00,
2013-04-05 16:05:00,52.6,23.0,30.07,NW,309,3.0,15.0,31,0.00,,,0.00,weatherlink.com 1.10,2013-04-05 20:05:00,
2013-04-05 16:20:00,52.8,23.0,30.07,NW,321,5.0,11.0,31,0.00,,,0.00,weatherlink.com 1.10,2013-04-05 20:20:00,
2013-04-05 16:30:00,53.1,24.0,30.07,NNW,338,6.0,14.0,32,0.00,,SKC,0.00,VWS V14.01,2013-04-05 20:30:00,
2013-04-05 16:35:00,53.1,23.0,30.07,North,351,6.0,10.0,31,0.00,,,0.00,weatherlink.com 1.10,2013-04-05 20:35:00,
2013-04-05 16:50:00,53.3,24.0,30.07,WNW,298,8.0,14.0,32,0.00,,,0.00,weatherlink.com 1.10,2013-04-05 20:50:00,
2013-04-05 17:00:00,52.7,22.9,30.07,NW,315,6.0,14.0,31,0.00,,SKC,0.00,VWS V14.01,2013-04-05 21:00:00,
2013-04-05 17:05:00,52.8,21.0,30.07,NW,315,8.0,11.0,29,0.00,,,0.00,weatherlink.com 1.10,2013-04-05 21:05:00,
2013-04-05 17:20:00,53.2,22.0,30.07,North,10,10.0,13.0,29,0.00,,,0.00,weatherlink.com 1.10,2013-04-05 21:20:00,
2013-04-05 17:30:00,52.7,21.4,30.07,NNW,338,7.0,16.0,29,0.00,,SKC,0.00,VWS V14.01,2013-04-05 21:30:00,
2013-04-05 17:35:00,52.6,20.0,30.07,North,5,10.0,14.0,28,0.00,,,0.00,weatherlink.com 1.10,2013-04-05 21:35:00,
2013-04-05 17:50:00,52.4,19.0,30.08,NNW,334,8.0,10.0,27,0.00,,,0.00,weatherlink.com 1.10,2013-04-05 21:50:00,
2013-04-05 18:00:00,52.7,19.7,30.08,NNW,338,6.0,13.0,27,0.00,,SKC,0.00,VWS V14.01,2013-04-05 22:00:00,
2013-04-05 18:05:00,52.6,20.0,30.08,NNW,331,4.0,11.0,28,0.00,,,0.00,weatherlink.com 1.10,2013-04-05 22:05:00,
2013-04-05 18:20:00,52.1,20.0,30.08,NNW,346,5.0,8.0,28,0.00,,,0.00,weatherlink.com 1.10,2013-04-05 22:20:00,
2013-04-05 18:30:00,51.6,17.9,30.09,NNW,338,5.0,11.0,26,0.00,,SKC,0.00,VWS V14.01,2013-04-05 22:30:00,
2013-04-05 18:35:00,51.5,19.0,30.09,NNE,14,3.0,10.0,28,0.00,,,0.00,weatherlink.com 1.10,2013-04-05 22:35:00,
2013-04-05 18:50:00,51.4,18.0,30.09,North,351,5.0,9.0,27,0.00,,,0.00,weatherlink.com 1.10,2013-04-05 22:50:00,
2013-04-05 19:00:00,50.9,19.0,30.10,NNW,338,6.0,12.0,28,0.00,,SKC,0.00,VWS V14.01,2013-04-05 23:00:00,
2013-04-05 19:05:00,50.9,19.0,30.10,North,355,6.0,11.0,28,0.00,,,0.00,weatherlink.com 1.10,2013-04-05 23:05:00,
2013-04-05 19:20:00,50.3,17.0,30.10,NNW,327,6.0,9.0,27,0.00,,,0.00,weatherlink.com 1.10,2013-04-05 23:20:00,
2013-04-05 19:30:00,49.7,18.8,30.10,NNW,338,5.0,10.0,29,0.00,,SKC,0.00,VWS V14.01,2013-04-05 23:30:00,
2013-04-05 19:35:00,49.6,18.0,30.10,NNW,340,1.0,6.0,29,0.00,,,0.00,weatherlink.com 1.10,2013-04-05 23:35:00,
2013-04-05 19:50:00,48.5,19.0,30.11,NNW,339,4.0,5.0,31,0.00,,,0.00,weatherlink.com 1.10,2013-04-05 23:50:00,
2013-04-05 20:00:00,47.8,18.6,30.11,North,0,3.0,6.0,31,0.00,,SKC,0.00,VWS V14.01,2013-04-06 00:00:00,
2013-04-05 20:05:00,47.6,18.0,30.11,NNW,338,3.0,6.0,31,0.00,,,0.00,weatherlink.com 1.10,2013-04-06 00:05:00,
2013-04-05 20:20:00,46.7,19.0,30.12,NNW,348,3.0,6.0,33,0.00,,,0.00,weatherlink.com 1.10,2013-04-06 00:20:00,
2013-04-05 20:30:00,45.9,19.1,30.12,NNW,338,3.0,6.0,34,0.00,,SKC,0.00,VWS V14.01,2013-04-06 00:30:00,
2013-04-05 20:35:00,45.8,19.0,30.12,North,355,3.0,4.0,34,0.00,,,0.00,weatherlink.com 1.10,2013-04-06 00:35:00,
2013-04-05 20:50:00,45.0,19.0,30.13,North,360,2.0,4.0,35,0.00,,,0.00,weatherlink.com 1.10,2013-04-06 00:50:00,
2013-04-05 21:00:00,44.5,18.6,30.13,North,0,2.0,4.0,35,0.00,,SKC,0.00,VWS V14.01,2013-04-06 01:00:00,
2013-04-05 21:05:00,44.5,18.0,30.13,NNE,19,0.0,4.0,35,0.00,,,0.00,weatherlink.com 1.10,2013-04-06 01:05:00,
2013-04-05 21:20:00,44.2,19.0,30.14,North,360,3.0,5.0,36,0.00,,,0.00,weatherlink.com 1.10,2013-04-06 01:20:00,
2013-04-05 21:30:00,43.9,18.7,30.14,NNE,22,2.0,5.0,36,0.00,,SKC,0.00,VWS V14.01,2013-04-06 01:30:00,
2013-04-05 22:00:00,42.8,19.0,30.15,NE,45,2.0,7.0,38,0.00,,SKC,0.00,VWS V14.01,2013-04-06 02:00:00,
2013-04-05 22:06:00,42.7,19.0,30.15,NNE,32,2.0,6.0,38,0.00,,,0.00,weatherlink.com 1.10,2013-04-06 02:06:00,
2013-04-05 22:21:00,42.4,18.0,30.15,ENE,65,3.0,7.0,38,0.00,,,0.00,weatherlink.com 1.10,2013-04-06 02:21:00,
2013-04-05 22:30:00,40.7,19.4,30.16,NE,45,4.0,10.0,42,0.00,,SKC,0.00,VWS V14.01,2013-04-06 02:30:00,
2013-04-05 22:36:00,40.6,20.0,30.16,ENE,61,7.0,7.0,43,0.00,,,0.00,weatherlink.com 1.10,2013-04-06 02:36:00,
2013-04-05 22:51:00,39.1,20.0,30.17,ENE,71,3.0,8.0,46,0.00,,,0.00,weatherlink.com 1.10,2013-04-06 02:51:00,
2013-04-05 23:00:00,38.3,20.8,30.17,ENE,68,4.0,9.0,49,0.00,,SKC,0.00,VWS V14.01,2013-04-06 03:00:00,
2013-04-05 23:30:00,36.2,21.6,30.17,ENE,68,4.0,8.0,55,0.00,,SKC,0.00,VWS V14.01,2013-04-06 03:30:00,
2013-04-05 23:36:00,36.1,21.0,30.17,ENE,76,4.0,7.0,55,0.00,,,0.00,weatherlink.com 1.10,2013-04-06 03:36:00,